createdAt,value
2023-04-26T00:02:25.337Z,35.10
2023-04-26T00:04:56.262Z,34.70
2023-04-26T00:07:26.882Z,34.60
2023-04-26T00:09:54.985Z,34.50
2023-04-26T00:12:23.032Z,34.50
2023-04-26T00:14:51.108Z,34.30
2023-04-26T00:17:19.174Z,34.10
2023-04-26T00:19:47.282Z,34.10
2023-04-26T00:22:15.393Z,33.90
2023-04-26T00:24:44.875Z,33.90
2023-04-26T00:27:12.917Z,34.40
2023-04-26T00:29:41.016Z,34.80
2023-04-26T00:32:09.190Z,34.70
2023-04-26T00:34:37.899Z,34.60
2023-04-26T00:37:06.138Z,34.40
2023-04-26T00:39:34.214Z,34.20
2023-04-26T00:42:03.670Z,34.20
2023-04-26T00:44:31.726Z,34.10
2023-04-26T00:46:59.808Z,34.00
2023-04-26T00:49:27.883Z,33.80
2023-04-26T00:51:55.972Z,33.80
2023-04-26T00:54:24.037Z,34.10
2023-04-26T00:56:53.322Z,34.50
2023-04-26T00:59:22.835Z,34.80
2023-04-26T01:01:50.929Z,34.50
2023-04-26T01:04:19.288Z,34.50
2023-04-26T01:06:47.474Z,34.30
2023-04-26T01:09:16.461Z,34.20
2023-04-26T01:11:44.706Z,34.10
2023-04-26T01:14:12.758Z,33.90
2023-04-26T01:16:42.277Z,33.80
2023-04-26T01:19:12.417Z,33.80
2023-04-26T01:21:40.624Z,33.80
2023-04-26T01:24:10.674Z,34.30
2023-04-26T01:26:44.141Z,34.60
2023-04-26T01:29:16.154Z,34.90
2023-04-26T01:31:44.306Z,35.10
2023-04-26T01:34:12.396Z,35.50
2023-04-26T01:36:40.600Z,35.50
2023-04-26T01:39:10.472Z,35.10
2023-04-26T01:41:38.527Z,34.90
2023-04-26T01:44:07.156Z,34.70
2023-04-26T01:46:35.236Z,34.50
2023-04-26T01:49:03.333Z,34.40
2023-04-26T01:51:31.411Z,34.20
2023-04-26T01:53:59.491Z,34.20
2023-04-26T01:56:29.021Z,34.00
2023-04-26T01:58:57.517Z,34.40
2023-04-26T02:01:25.710Z,34.80
2023-04-26T02:03:53.913Z,35.00
2023-04-26T02:06:22.383Z,34.70
2023-04-26T02:08:50.506Z,34.60
2023-04-26T02:11:18.589Z,34.60
2023-04-26T02:13:48.050Z,34.30
2023-04-26T02:16:16.986Z,34.10
2023-04-26T02:18:45.534Z,34.10
2023-04-26T02:21:13.612Z,34.00
2023-04-26T02:23:41.694Z,33.90
2023-04-26T02:26:09.728Z,34.20
2023-04-26T02:28:37.981Z,34.40
2023-04-26T02:31:07.502Z,34.80
2023-04-26T02:33:35.632Z,34.70
2023-04-26T02:36:05.038Z,34.50
2023-04-26T02:38:34.719Z,35.10
2023-04-26T02:41:02.914Z,34.20
2023-04-26T02:43:31.110Z,34.10
2023-04-26T02:46:01.172Z,34.00
2023-04-26T02:48:30.661Z,33.90
2023-04-26T02:50:58.698Z,33.80
2023-04-26T02:53:26.745Z,33.90
2023-04-26T02:55:54.884Z,34.40
2023-04-26T02:58:22.895Z,34.60
2023-04-26T03:00:51.082Z,34.60
2023-04-26T03:03:19.275Z,34.40
2023-04-26T03:05:48.925Z,34.40
2023-04-26T03:08:16.978Z,34.30
2023-04-26T03:10:45.670Z,34.10
2023-04-26T03:13:13.736Z,34.00
2023-04-26T03:15:45.681Z,33.90
2023-04-26T03:18:13.814Z,33.70
2023-04-26T03:20:42.460Z,33.60
2023-04-26T03:23:11.892Z,34.00
2023-04-26T03:25:39.957Z,34.30
2023-04-26T03:28:08.010Z,34.70
2023-04-26T03:30:36.055Z,34.90
2023-04-26T03:33:04.187Z,35.20
2023-04-26T03:35:32.284Z,35.30
2023-04-26T03:38:00.294Z,35.20
2023-04-26T03:40:29.973Z,35.10
2023-04-26T03:42:58.003Z,34.90
2023-04-26T03:45:26.976Z,34.60
2023-04-26T03:47:55.167Z,34.40
2023-04-26T03:50:23.361Z,34.30
2023-04-26T03:52:51.473Z,34.20
2023-04-26T03:55:19.558Z,34.00
2023-04-26T03:57:49.241Z,33.90
2023-04-26T04:00:17.404Z,34.50
2023-04-26T04:02:45.732Z,34.80
2023-04-26T04:05:14.041Z,34.90
2023-04-26T04:07:42.895Z,34.60
2023-04-26T04:10:11.802Z,34.60
2023-04-26T04:12:39.832Z,34.50
2023-04-26T04:15:11.144Z,34.20
2023-04-26T04:17:39.206Z,34.10
2023-04-26T04:20:09.336Z,34.00
2023-04-26T04:22:39.695Z,33.90
2023-04-26T04:25:09.402Z,33.80
2023-04-26T04:27:38.244Z,34.10
2023-04-26T04:30:09.057Z,34.40
2023-04-26T04:32:39.390Z,34.70
2023-04-26T04:35:08.183Z,34.50
2023-04-26T04:37:36.246Z,34.40
2023-04-26T04:40:05.088Z,34.30
2023-04-26T04:42:33.350Z,34.20
2023-04-26T04:45:01.622Z,34.10
2023-04-26T04:47:29.739Z,33.90
2023-04-26T04:49:59.339Z,33.70
2023-04-26T04:52:27.538Z,33.60
2023-04-26T04:54:56.062Z,34.00
2023-04-26T04:57:24.181Z,34.20
2023-04-26T04:59:52.750Z,34.60
2023-04-26T05:02:21.835Z,34.60
2023-04-26T05:04:50.191Z,34.20
2023-04-26T05:07:19.745Z,34.20
2023-04-26T05:09:48.639Z,34.20
2023-04-26T05:12:16.770Z,34.00
2023-04-26T05:14:44.840Z,33.80
2023-04-26T05:17:13.424Z,33.70
2023-04-26T05:19:41.549Z,33.60
2023-04-26T05:22:09.652Z,33.50
2023-04-26T05:24:39.111Z,34.00
2023-04-26T05:27:07.267Z,34.30
2023-04-26T05:29:35.320Z,34.60
2023-04-26T05:32:03.978Z,34.90
2023-04-26T05:34:32.136Z,35.10
2023-04-26T05:37:00.171Z,35.30
2023-04-26T05:39:28.241Z,35.30
2023-04-26T05:41:57.679Z,34.90
2023-04-26T05:44:25.758Z,34.70
2023-04-26T05:46:54.081Z,34.40
2023-04-26T05:49:22.207Z,34.30
2023-04-26T05:51:50.320Z,34.20
2023-04-26T05:54:18.423Z,34.10
2023-04-26T05:56:46.517Z,34.00
2023-04-26T05:59:15.953Z,34.00
2023-04-26T06:01:44.056Z,34.70
2023-04-26T06:04:12.249Z,35.00
2023-04-26T06:06:40.607Z,35.00
2023-04-26T06:09:08.718Z,34.40
2023-04-26T06:11:36.838Z,34.30
2023-04-26T06:14:04.929Z,34.00
2023-04-26T06:16:34.435Z,33.90
2023-04-26T06:19:02.683Z,33.70
2023-04-26T06:21:31.245Z,33.60
2023-04-26T06:23:59.315Z,33.60
2023-04-26T06:26:27.455Z,33.40
2023-04-26T06:28:55.520Z,34.20
2023-04-26T06:31:23.625Z,35.30
2023-04-26T06:33:53.359Z,34.90
2023-04-26T06:36:21.751Z,34.00
2023-04-26T06:38:49.875Z,33.80
2023-04-26T06:41:17.958Z,33.60
2023-04-26T06:43:46.059Z,33.50
2023-04-26T06:46:14.366Z,33.50
2023-04-26T06:48:42.620Z,33.20
2023-04-26T06:51:12.458Z,33.20
2023-04-26T06:53:41.606Z,33.10
2023-04-26T06:56:10.286Z,33.50
2023-04-26T06:58:38.322Z,34.20
2023-04-26T07:01:08.548Z,34.50
2023-04-26T07:03:36.786Z,33.80
2023-04-26T07:06:06.368Z,33.70
2023-04-26T07:08:35.845Z,33.40
2023-04-26T07:11:03.955Z,33.40
2023-04-26T07:13:32.250Z,33.30
2023-04-26T07:16:00.471Z,33.20
2023-04-26T07:18:28.613Z,33.10
2023-04-26T07:20:56.790Z,33.00
2023-04-26T07:23:24.940Z,32.90
2023-04-26T07:25:55.701Z,33.20
2023-04-26T07:28:24.399Z,33.90
2023-04-26T07:30:52.453Z,34.20
2023-04-26T07:33:20.692Z,34.40
2023-04-26T07:35:55.271Z,34.50
2023-04-26T07:38:23.341Z,34.60
2023-04-26T07:40:51.672Z,34.00
2023-04-26T07:43:21.722Z,33.90
2023-04-26T07:45:49.822Z,33.70
2023-04-26T07:48:18.136Z,33.60
2023-04-26T07:50:46.341Z,33.60
2023-04-26T07:53:14.477Z,33.40
2023-04-26T07:55:42.717Z,33.40
2023-04-26T07:58:14.562Z,33.40
2023-04-26T08:00:44.061Z,33.40
2023-04-26T08:03:13.674Z,34.10
2023-04-26T08:05:42.238Z,34.40
2023-04-26T08:08:11.032Z,34.10
2023-04-26T08:10:41.639Z,33.80
2023-04-26T08:13:09.949Z,33.80
2023-04-26T08:15:38.055Z,33.70
2023-04-26T08:18:07.602Z,33.60
2023-04-26T08:20:35.765Z,33.60
2023-04-26T08:23:03.795Z,33.60
2023-04-26T08:25:34.752Z,33.50
2023-04-26T08:28:02.913Z,33.40
2023-04-26T08:30:31.190Z,33.70
2023-04-26T08:32:59.364Z,34.00
2023-04-26T08:35:28.897Z,34.20
2023-04-26T08:37:57.009Z,34.40
2023-04-26T08:40:25.800Z,34.20
2023-04-26T08:42:54.057Z,34.10
2023-04-26T08:45:22.280Z,33.90
2023-04-26T08:47:51.132Z,33.80
2023-04-26T08:50:21.052Z,33.80
2023-04-26T08:52:51.521Z,33.70
2023-04-26T08:55:20.265Z,33.50
2023-04-26T08:57:48.893Z,33.50
2023-04-26T09:00:17.610Z,33.60
2023-04-26T09:02:48.509Z,33.90
2023-04-26T09:05:16.951Z,34.20
2023-04-26T09:07:46.190Z,34.20
2023-04-26T09:10:19.860Z,34.10
2023-04-26T09:12:47.977Z,34.00
2023-04-26T09:15:16.221Z,33.90
2023-04-26T09:17:45.993Z,33.80
2023-04-26T09:20:22.227Z,33.80
2023-04-26T09:22:50.651Z,33.70
2023-04-26T09:25:21.298Z,33.60
2023-04-26T09:27:50.208Z,33.60
2023-04-26T09:30:20.697Z,33.70
2023-04-26T09:32:53.231Z,33.90
2023-04-26T09:35:28.516Z,34.20
2023-04-26T09:38:02.117Z,34.70
2023-04-26T09:40:36.558Z,35.00
2023-04-26T09:43:05.365Z,35.30
2023-04-26T09:45:34.369Z,34.80
2023-04-26T09:48:16.752Z,34.60
2023-04-26T09:50:45.851Z,34.40
2023-04-26T09:53:25.690Z,34.20
2023-04-26T09:55:55.162Z,34.20
2023-04-26T09:58:23.526Z,34.10
2023-04-26T10:00:51.977Z,33.90
2023-04-26T10:03:20.457Z,33.90
2023-04-26T10:05:48.802Z,34.00
2023-04-26T10:08:16.944Z,34.10
2023-04-26T10:10:45.946Z,34.30
2023-04-26T10:13:15.379Z,34.50
2023-04-26T10:15:43.443Z,34.40
2023-04-26T10:18:11.901Z,34.20
2023-04-26T10:20:41.518Z,34.20
2023-04-26T10:23:13.220Z,34.00
2023-04-26T10:25:42.494Z,33.90
2023-04-26T10:28:10.910Z,33.80
2023-04-26T10:30:58.385Z,33.70
2023-04-26T10:33:27.273Z,33.70
2023-04-26T10:36:13.739Z,33.90
2023-04-26T10:38:43.025Z,34.00
2023-04-26T10:41:30.938Z,34.50
2023-04-26T10:44:34.856Z,34.30
2023-04-26T10:47:04.412Z,34.20
2023-04-26T10:49:32.537Z,34.00
2023-04-26T10:52:13.929Z,33.90
2023-04-26T10:54:47.108Z,33.80
2023-04-26T10:57:15.476Z,33.70
2023-04-26T11:00:16.950Z,33.60
2023-04-26T11:03:00.218Z,33.70
2023-04-26T11:05:35.716Z,33.90
2023-04-26T11:08:07.806Z,34.00
2023-04-26T11:10:38.268Z,34.50
2023-04-26T11:13:06.614Z,34.20
2023-04-26T11:15:34.693Z,34.10
2023-04-26T11:18:05.079Z,33.90
2023-04-26T11:20:33.598Z,33.80
2023-04-26T11:23:01.726Z,33.70
2023-04-26T11:25:29.980Z,33.70
2023-04-26T11:28:01.915Z,33.60
2023-04-26T11:30:31.786Z,33.50
2023-04-26T11:33:00.268Z,33.60
2023-04-26T11:35:29.959Z,33.80
2023-04-26T11:37:59.768Z,34.00
2023-04-26T11:40:31.527Z,34.30
2023-04-26T11:43:03.532Z,34.70
2023-04-26T11:45:35.918Z,35.20
2023-04-26T11:48:05.064Z,34.90
2023-04-26T11:50:34.646Z,34.60
2023-04-26T11:53:03.381Z,34.40
2023-04-26T11:55:33.140Z,34.40
2023-04-26T11:58:01.430Z,34.20
2023-04-26T12:00:29.489Z,34.00
2023-04-26T12:02:58.462Z,34.00
2023-04-26T12:05:27.670Z,33.90
2023-04-26T12:07:57.804Z,33.90
2023-04-26T12:10:27.905Z,34.00
2023-04-26T12:12:56.945Z,34.30
2023-04-26T12:15:25.763Z,34.60
2023-04-26T12:17:57.945Z,34.40
2023-04-26T12:20:33.610Z,34.20
2023-04-26T12:23:05.336Z,34.10
2023-04-26T12:25:34.270Z,34.00
2023-04-26T12:28:02.628Z,33.80
2023-04-26T12:30:31.417Z,33.80
2023-04-26T12:33:09.270Z,33.70
2023-04-26T12:35:44.219Z,33.60
2023-04-26T12:38:14.164Z,33.80
2023-04-26T12:40:42.913Z,34.00
2023-04-26T12:43:11.288Z,34.50
2023-04-26T12:45:39.354Z,34.30
2023-04-26T12:48:07.561Z,34.10
2023-04-26T12:50:35.663Z,34.00
2023-04-26T12:53:03.784Z,33.90
2023-04-26T12:55:33.267Z,33.80
2023-04-26T12:58:01.490Z,33.70
2023-04-26T13:00:29.665Z,33.60
2023-04-26T13:02:57.824Z,33.60
2023-04-26T13:05:25.962Z,33.60
2023-04-26T13:07:54.098Z,33.80
2023-04-26T13:10:22.192Z,34.00
2023-04-26T13:12:51.579Z,34.30
2023-04-26T13:15:19.765Z,34.20
2023-04-26T13:17:47.860Z,34.00
2023-04-26T13:20:15.965Z,33.80
2023-04-26T13:22:44.041Z,33.80
2023-04-26T13:25:13.249Z,33.70
2023-04-26T13:27:41.775Z,33.60
2023-04-26T13:30:12.541Z,33.50
2023-04-26T13:32:40.709Z,33.40
2023-04-26T13:35:09.294Z,33.60
2023-04-26T13:37:37.346Z,34.40
2023-04-26T13:40:06.294Z,33.90
2023-04-26T13:42:34.367Z,34.30
2023-04-26T13:45:06.395Z,34.50
2023-04-26T13:47:35.973Z,34.80
2023-04-26T13:50:04.350Z,35.00
2023-04-26T13:52:32.476Z,34.60
2023-04-26T13:55:00.783Z,34.50
2023-04-26T13:57:28.843Z,34.30
2023-04-26T13:59:56.969Z,34.20
2023-04-26T14:02:25.593Z,34.10
2023-04-26T14:04:55.508Z,33.90
2023-04-26T14:07:23.681Z,33.80
2023-04-26T14:09:51.976Z,33.80
2023-04-26T14:12:20.020Z,34.00
2023-04-26T14:14:50.922Z,34.00
2023-04-26T14:17:20.175Z,34.50
2023-04-26T14:19:48.356Z,34.40
2023-04-26T14:22:17.909Z,34.20
2023-04-26T14:24:46.092Z,34.10
2023-04-26T14:27:14.211Z,33.90
2023-04-26T14:29:42.275Z,33.80
2023-04-26T14:32:10.402Z,33.80
2023-04-26T14:34:40.046Z,34.30
2023-04-26T14:37:08.177Z,33.60
2023-04-26T14:39:37.723Z,33.70
2023-04-26T14:42:06.798Z,33.80
2023-04-26T14:44:34.841Z,33.90
2023-04-26T14:47:03.561Z,34.40
2023-04-26T14:49:31.671Z,34.30
2023-04-26T14:51:59.754Z,34.10
2023-04-26T14:54:29.006Z,34.00
2023-04-26T14:56:58.709Z,33.90
2023-04-26T14:59:26.927Z,33.80
2023-04-26T15:01:55.172Z,33.70
2023-04-26T15:04:23.522Z,33.70
2023-04-26T15:06:51.947Z,33.60
2023-04-26T15:09:20.127Z,33.70
2023-04-26T15:11:48.191Z,33.80
2023-04-26T15:14:17.606Z,33.90
2023-04-26T15:16:45.763Z,34.40
2023-04-26T15:19:13.868Z,34.20
2023-04-26T15:21:42.407Z,34.10
2023-04-26T15:24:10.478Z,33.90
2023-04-26T15:26:38.601Z,33.80
2023-04-26T15:29:06.661Z,33.70
2023-04-26T15:31:37.048Z,33.60
2023-04-26T15:34:05.373Z,33.50
2023-04-26T15:36:33.436Z,33.50
2023-04-26T15:39:02.052Z,33.70
2023-04-26T15:41:30.126Z,33.90
2023-04-26T15:43:59.558Z,34.10
2023-04-26T15:46:27.713Z,34.10
2023-04-26T15:49:05.419Z,34.80
2023-04-26T15:51:33.543Z,35.10
2023-04-26T15:54:01.653Z,35.10
2023-04-26T15:56:29.731Z,34.80
2023-04-26T15:58:58.281Z,34.60
2023-04-26T16:01:26.480Z,34.40
2023-04-26T16:03:54.844Z,34.20
2023-04-26T16:06:24.370Z,34.20
2023-04-26T16:08:52.454Z,34.00
2023-04-26T16:11:20.451Z,33.90
2023-04-26T16:13:51.831Z,33.90
2023-04-26T16:16:20.151Z,34.20
2023-04-26T16:18:48.274Z,34.40
2023-04-26T16:21:16.647Z,34.80
2023-04-26T16:23:46.359Z,34.50
2023-04-26T16:26:14.488Z,34.40
2023-04-26T16:28:42.714Z,34.20
2023-04-26T16:31:10.976Z,34.10
2023-04-26T16:33:39.127Z,34.00
2023-04-26T16:36:09.141Z,33.90
2023-04-26T16:38:37.212Z,33.70
2023-04-26T16:41:07.262Z,33.70
2023-04-26T16:43:35.328Z,33.80
2023-04-26T16:46:05.513Z,33.90
2023-04-26T16:48:35.443Z,34.00
2023-04-26T16:51:06.963Z,34.60
2023-04-26T16:53:36.054Z,34.30
2023-04-26T16:56:04.367Z,34.20
2023-04-26T16:58:33.933Z,34.10
2023-04-26T17:01:02.162Z,34.00
2023-04-26T17:03:30.357Z,33.90
2023-04-26T17:05:58.809Z,33.70
2023-04-26T17:08:27.323Z,34.40
2023-04-26T17:10:56.684Z,33.70
2023-04-26T17:13:29.318Z,33.90
2023-04-26T17:15:58.934Z,34.00
2023-04-26T17:18:27.145Z,34.50
2023-04-26T17:20:56.422Z,34.40
2023-04-26T17:23:24.710Z,34.20
2023-04-26T17:25:54.508Z,34.10
2023-04-26T17:28:23.443Z,33.90
2023-04-26T17:30:52.058Z,33.80
2023-04-26T17:33:21.613Z,33.80
2023-04-26T17:35:50.623Z,33.80
2023-04-26T17:38:18.875Z,33.60
2023-04-26T17:40:46.956Z,33.80
2023-04-26T17:43:15.157Z,33.90
2023-04-26T17:45:43.323Z,34.40
2023-04-26T17:48:13.458Z,34.70
2023-04-26T17:50:43.097Z,35.00
2023-04-26T17:53:11.658Z,35.20
2023-04-26T17:55:40.636Z,35.30
2023-04-26T17:58:08.778Z,34.90
2023-04-26T18:00:37.128Z,35.40
2023-04-26T18:03:07.153Z,34.60
2023-04-26T18:05:36.420Z,34.50
2023-04-26T18:08:06.087Z,34.30
2023-04-26T18:10:34.355Z,34.20
2023-04-26T18:13:03.070Z,34.10
2023-04-26T18:15:31.245Z,34.10
2023-04-26T18:17:59.402Z,34.20
2023-04-26T18:20:30.652Z,34.50
2023-04-26T18:22:58.864Z,34.80
2023-04-26T18:25:28.712Z,34.60
2023-04-26T18:27:56.982Z,34.40
2023-04-26T18:30:25.076Z,34.40
2023-04-26T18:32:53.564Z,34.30
2023-04-26T18:35:22.156Z,34.10
2023-04-26T18:37:50.327Z,34.00
2023-04-26T18:40:18.570Z,33.90
2023-04-26T18:42:48.134Z,33.80
2023-04-26T18:45:16.522Z,33.90
2023-04-26T18:47:44.634Z,34.20
2023-04-26T18:50:13.047Z,34.50
2023-04-26T18:52:41.450Z,34.70
2023-04-26T18:55:10.646Z,34.50
2023-04-26T18:57:38.753Z,34.40
2023-04-26T19:00:10.001Z,34.20
2023-04-26T19:02:40.405Z,34.20
2023-04-26T19:05:09.782Z,34.00
2023-04-26T19:07:38.172Z,33.90
2023-04-26T19:10:07.640Z,33.80
2023-04-26T19:12:35.710Z,33.70
2023-04-26T19:15:03.966Z,34.00
2023-04-26T19:17:34.410Z,34.20
2023-04-26T19:20:02.944Z,34.60
2023-04-26T19:22:31.284Z,34.60
2023-04-26T19:24:59.438Z,34.40
2023-04-26T19:27:27.527Z,34.20
2023-04-26T19:29:55.775Z,34.10
2023-04-26T19:32:24.064Z,34.00
2023-04-26T19:34:53.613Z,33.90
2023-04-26T19:37:21.675Z,33.90
2023-04-26T19:39:49.739Z,33.70
2023-04-26T19:42:17.896Z,33.70
2023-04-26T19:44:46.190Z,34.00
2023-04-26T19:47:14.433Z,34.50
2023-04-26T19:49:42.579Z,35.30
2023-04-26T19:52:13.541Z,35.00
2023-04-26T19:54:41.638Z,35.10
2023-04-26T19:57:09.706Z,35.30
2023-04-26T19:59:37.780Z,35.10
2023-04-26T20:02:06.898Z,35.00
2023-04-26T20:04:35.075Z,34.80
2023-04-26T20:07:04.994Z,34.60
2023-04-26T20:09:35.745Z,34.50
2023-04-26T20:12:04.141Z,34.40
2023-04-26T20:14:32.316Z,34.20
2023-04-26T20:17:02.401Z,34.10
2023-04-26T20:19:30.676Z,34.30
2023-04-26T20:21:58.751Z,34.60
2023-04-26T20:24:28.241Z,34.80
2023-04-26T20:26:57.719Z,34.80
2023-04-26T20:29:25.864Z,34.70
2023-04-26T20:31:54.017Z,34.50
2023-04-26T20:34:22.216Z,34.40
2023-04-26T20:36:50.477Z,34.20
2023-04-26T20:41:55.459Z,34.00
2023-04-26T20:44:25.028Z,33.90
2023-04-26T20:46:53.314Z,33.90
2023-04-26T20:49:21.433Z,34.20
2023-04-26T20:51:49.480Z,34.50
2023-04-26T20:54:17.550Z,34.80
2023-04-26T20:56:45.612Z,34.60
2023-04-26T20:59:13.717Z,34.50
2023-04-26T21:01:43.252Z,34.30
2023-04-26T21:04:11.562Z,34.20
2023-04-26T21:06:40.289Z,34.10
2023-04-26T21:09:08.773Z,34.00
2023-04-26T21:11:37.050Z,33.90
2023-04-26T21:14:06.753Z,33.80
2023-04-26T21:16:34.806Z,33.80
2023-04-26T21:19:05.100Z,34.20
2023-04-26T21:21:33.675Z,34.50
2023-04-26T21:24:02.716Z,34.60
2023-04-26T21:26:31.079Z,34.40
2023-04-26T21:28:59.114Z,34.40
2023-04-26T21:31:27.246Z,34.10
2023-04-26T21:33:55.380Z,34.00
2023-04-26T21:36:24.886Z,34.00
2023-04-26T21:38:52.994Z,33.80
2023-04-26T21:41:21.112Z,33.70
2023-04-26T21:43:50.235Z,33.60
2023-04-26T21:46:18.380Z,33.90
2023-04-26T21:48:46.470Z,34.30
2023-04-26T21:51:14.528Z,34.60
2023-04-26T21:53:43.999Z,34.90
2023-04-26T21:56:12.140Z,35.00
2023-04-26T21:58:40.204Z,35.30
2023-04-26T22:01:09.921Z,35.20
2023-04-26T22:03:38.311Z,34.90
2023-04-26T22:06:07.217Z,34.90
2023-04-26T22:08:35.693Z,34.70
2023-04-26T22:11:05.174Z,34.50
2023-04-26T22:13:33.408Z,34.30
2023-04-26T22:16:01.532Z,34.20
2023-04-26T22:18:29.649Z,34.20
2023-04-26T22:20:57.759Z,34.00
2023-04-26T22:23:25.866Z,34.50
2023-04-26T22:25:53.957Z,34.70
2023-04-26T22:28:23.388Z,34.80
2023-04-26T22:30:51.495Z,34.50
2023-04-26T22:33:19.585Z,34.50
2023-04-26T22:35:47.692Z,34.40
2023-04-26T22:38:15.990Z,34.20
2023-04-26T22:40:44.085Z,34.20
2023-04-26T22:43:12.170Z,33.90
2023-04-26T22:45:41.679Z,33.80
2023-04-26T22:48:09.800Z,33.70
2023-04-26T22:50:37.904Z,34.00
2023-04-26T22:53:05.969Z,34.50
2023-04-26T22:55:34.052Z,34.70
2023-04-26T22:58:02.099Z,34.60
2023-04-26T23:00:30.162Z,34.40
2023-04-26T23:02:59.700Z,34.30
2023-04-26T23:05:27.918Z,34.20
2023-04-26T23:07:55.989Z,34.00
2023-04-26T23:10:24.077Z,33.90
2023-04-26T23:12:52.108Z,33.80
2023-04-26T23:15:20.231Z,33.70
2023-04-26T23:17:48.661Z,33.70
2023-04-26T23:20:18.219Z,34.20
2023-04-26T23:22:46.346Z,34.50
2023-04-26T23:25:14.483Z,34.60
2023-04-26T23:27:42.547Z,34.30
2023-04-26T23:30:11.917Z,34.20
2023-04-26T23:32:40.037Z,34.10
2023-04-26T23:35:08.833Z,34.00
2023-04-26T23:37:38.282Z,33.90
2023-04-26T23:40:09.080Z,33.80
2023-04-26T23:42:37.369Z,33.70
2023-04-26T23:45:07.816Z,33.60
2023-04-26T23:47:35.973Z,33.80
2023-04-26T23:50:04.079Z,34.10
2023-04-26T23:52:32.112Z,34.60
2023-04-26T23:55:01.567Z,34.80
2023-04-26T23:57:29.618Z,35.00
2023-04-26T23:59:57.665Z,35.20
